sensor_id;sensor_type;location;lat;lon;timestamp;P1;durP1;ratioP1;P2;durP2;ratioP2
11865;SDS011;5992;52.744;6.898;2023-09-19T00:03:16;3.30;;;0.93;;
11865;SDS011;5992;52.744;6.898;2023-09-19T00:06:28;3.33;;;1.07;;
11865;SDS011;5992;52.744;6.898;2023-09-19T00:09:53;2.77;;;0.90;;
11865;SDS011;5992;52.744;6.898;2023-09-19T00:12:54;1.17;;;0.73;;
11865;SDS011;5992;52.744;6.898;2023-09-19T00:16:11;2.60;;;1.10;;
11865;SDS011;5992;52.744;6.898;2023-09-19T00:19:23;3.27;;;1.17;;
11865;SDS011;5992;52.744;6.898;2023-09-19T00:22:38;1.85;;;0.90;;
11865;SDS011;5992;52.744;6.898;2023-09-19T00:25:50;4.53;;;1.30;;
11865;SDS011;5992;52.744;6.898;2023-09-19T00:29:14;1.47;;;1.00;;
11865;SDS011;5992;52.744;6.898;2023-09-19T00:32:16;5.65;;;1.00;;
11865;SDS011;5992;52.744;6.898;2023-09-19T00:35:46;2.17;;;1.10;;
11865;SDS011;5992;52.744;6.898;2023-09-19T00:38:58;4.23;;;1.37;;
11865;SDS011;5992;52.744;6.898;2023-09-19T00:42:22;3.35;;;0.90;;
11865;SDS011;5992;52.744;6.898;2023-09-19T00:45:23;4.77;;;1.67;;
11865;SDS011;5992;52.744;6.898;2023-09-19T00:48:40;2.30;;;1.00;;
11865;SDS011;5992;52.744;6.898;2023-09-19T00:51:51;1.73;;;1.13;;
11865;SDS011;5992;52.744;6.898;2023-09-19T00:55:05;10.13;;;1.63;;
11865;SDS011;5992;52.744;6.898;2023-09-19T00:58:30;3.97;;;1.33;;
11865;SDS011;5992;52.744;6.898;2023-09-19T01:01:54;8.30;;;1.50;;
11865;SDS011;5992;52.744;6.898;2023-09-19T01:05:08;3.75;;;1.30;;
11865;SDS011;5992;52.744;6.898;2023-09-19T01:08:32;5.20;;;1.75;;
11865;SDS011;5992;52.744;6.898;2023-09-19T01:11:35;2.80;;;1.50;;
11865;SDS011;5992;52.744;6.898;2023-09-19T01:14:59;5.17;;;1.53;;
11865;SDS011;5992;52.744;6.898;2023-09-19T01:18:14;5.13;;;1.90;;
11865;SDS011;5992;52.744;6.898;2023-09-19T01:21:41;6.07;;;2.10;;
11865;SDS011;5992;52.744;6.898;2023-09-19T01:24:59;3.70;;;1.43;;
11865;SDS011;5992;52.744;6.898;2023-09-19T01:28:20;1.85;;;1.20;;
11865;SDS011;5992;52.744;6.898;2023-09-19T01:31:35;3.70;;;1.60;;
11865;SDS011;5992;52.744;6.898;2023-09-19T01:34:59;4.37;;;1.77;;
11865;SDS011;5992;52.744;6.898;2023-09-19T01:38:00;9.60;;;2.07;;
11865;SDS011;5992;52.744;6.898;2023-09-19T01:41:14;5.33;;;2.00;;
11865;SDS011;5992;52.744;6.898;2023-09-19T01:44:29;3.75;;;1.50;;
11865;SDS011;5992;52.744;6.898;2023-09-19T01:47:55;2.27;;;1.40;;
11865;SDS011;5992;52.744;6.898;2023-09-19T01:51:08;7.67;;;1.90;;
11865;SDS011;5992;52.744;6.898;2023-09-19T01:54:32;6.30;;;1.70;;
11865;SDS011;5992;52.744;6.898;2023-09-19T01:57:48;5.83;;;1.83;;
11865;SDS011;5992;52.744;6.898;2023-09-19T02:01:11;5.87;;;1.67;;
11865;SDS011;5992;52.744;6.898;2023-09-19T02:04:36;6.80;;;1.77;;
11865;SDS011;5992;52.744;6.898;2023-09-19T02:07:48;3.70;;;1.67;;
11865;SDS011;5992;52.744;6.898;2023-09-19T02:11:01;4.10;;;1.70;;
11865;SDS011;5992;52.744;6.898;2023-09-19T02:14:25;3.13;;;1.50;;
11865;SDS011;5992;52.744;6.898;2023-09-19T02:17:38;4.17;;;1.53;;
11865;SDS011;5992;52.744;6.898;2023-09-19T02:20:41;3.10;;;1.60;;
11865;SDS011;5992;52.744;6.898;2023-09-19T02:24:07;3.20;;;1.65;;
11865;SDS011;5992;52.744;6.898;2023-09-19T02:27:18;6.55;;;2.30;;
11865;SDS011;5992;52.744;6.898;2023-09-19T02:30:42;4.55;;;1.80;;
11865;SDS011;5992;52.744;6.898;2023-09-19T02:33:43;3.80;;;1.90;;
11865;SDS011;5992;52.744;6.898;2023-09-19T02:36:58;5.77;;;2.63;;
11865;SDS011;5992;52.744;6.898;2023-09-19T02:40:22;8.57;;;1.77;;
11865;SDS011;5992;52.744;6.898;2023-09-19T02:43:36;4.70;;;1.47;;
11865;SDS011;5992;52.744;6.898;2023-09-19T02:46:48;5.80;;;2.40;;
11865;SDS011;5992;52.744;6.898;2023-09-19T02:50:00;5.67;;;1.87;;
11865;SDS011;5992;52.744;6.898;2023-09-19T02:53:15;7.07;;;2.07;;
11865;SDS011;5992;52.744;6.898;2023-09-19T02:56:40;6.17;;;1.70;;
11865;SDS011;5992;52.744;6.898;2023-09-19T03:00:06;4.50;;;1.50;;
11865;SDS011;5992;52.744;6.898;2023-09-19T03:03:33;1.90;;;1.70;;
11865;SDS011;5992;52.744;6.898;2023-09-19T03:06:46;5.83;;;1.30;;
11865;SDS011;5992;52.744;6.898;2023-09-19T03:10:11;6.90;;;1.90;;
11865;SDS011;5992;52.744;6.898;2023-09-19T03:13:35;7.45;;;2.25;;
11865;SDS011;5992;52.744;6.898;2023-09-19T03:16:59;5.23;;;1.70;;
11865;SDS011;5992;52.744;6.898;2023-09-19T03:20:12;5.15;;;2.00;;
11865;SDS011;5992;52.744;6.898;2023-09-19T03:23:37;2.27;;;1.67;;
11865;SDS011;5992;52.744;6.898;2023-09-19T03:26:51;8.43;;;1.57;;
11865;SDS011;5992;52.744;6.898;2023-09-19T03:30:16;4.93;;;1.57;;
11865;SDS011;5992;52.744;6.898;2023-09-19T03:33:29;3.97;;;1.50;;
11865;SDS011;5992;52.744;6.898;2023-09-19T03:36:53;4.63;;;1.47;;
11865;SDS011;5992;52.744;6.898;2023-09-19T03:40:06;5.73;;;1.47;;
11865;SDS011;5992;52.744;6.898;2023-09-19T03:43:33;6.90;;;1.60;;
11865;SDS011;5992;52.744;6.898;2023-09-19T03:46:57;3.50;;;1.70;;
11865;SDS011;5992;52.744;6.898;2023-09-19T03:50:10;5.35;;;1.30;;
11865;SDS011;5992;52.744;6.898;2023-09-19T03:53:11;5.25;;;1.80;;
11865;SDS011;5992;52.744;6.898;2023-09-19T03:56:26;3.57;;;1.53;;
11865;SDS011;5992;52.744;6.898;2023-09-19T03:59:28;10.70;;;2.33;;
11865;SDS011;5992;52.744;6.898;2023-09-19T04:02:47;4.03;;;1.43;;
11865;SDS011;5992;52.744;6.898;2023-09-19T04:06:11;5.07;;;1.70;;
11865;SDS011;5992;52.744;6.898;2023-09-19T04:09:24;5.55;;;1.70;;
11865;SDS011;5992;52.744;6.898;2023-09-19T04:12:37;6.70;;;1.87;;
11865;SDS011;5992;52.744;6.898;2023-09-19T04:15:50;9.03;;;1.90;;
11865;SDS011;5992;52.744;6.898;2023-09-19T04:19:16;5.57;;;1.67;;
11865;SDS011;5992;52.744;6.898;2023-09-19T04:22:29;6.07;;;1.63;;
11865;SDS011;5992;52.744;6.898;2023-09-19T04:25:42;4.70;;;1.70;;
11865;SDS011;5992;52.744;6.898;2023-09-19T04:28:43;5.95;;;2.30;;
11865;SDS011;5992;52.744;6.898;2023-09-19T04:31:58;8.45;;;2.50;;
11865;SDS011;5992;52.744;6.898;2023-09-19T04:35:11;5.00;;;1.90;;
11865;SDS011;5992;52.744;6.898;2023-09-19T04:38:25;6.83;;;1.93;;
11865;SDS011;5992;52.744;6.898;2023-09-19T04:41:26;7.90;;;2.53;;
11865;SDS011;5992;52.744;6.898;2023-09-19T04:44:39;4.40;;;1.90;;
11865;SDS011;5992;52.744;6.898;2023-09-19T04:47:41;9.75;;;2.35;;
11865;SDS011;5992;52.744;6.898;2023-09-19T04:51:06;5.10;;;2.00;;
11865;SDS011;5992;52.744;6.898;2023-09-19T04:54:18;7.85;;;1.70;;
11865;SDS011;5992;52.744;6.898;2023-09-19T04:57:30;8.70;;;2.07;;
11865;SDS011;5992;52.744;6.898;2023-09-19T05:00:31;5.60;;;1.90;;
11865;SDS011;5992;52.744;6.898;2023-09-19T05:03:45;5.27;;;1.83;;
11865;SDS011;5992;52.744;6.898;2023-09-19T05:06:57;5.87;;;1.77;;
11865;SDS011;5992;52.744;6.898;2023-09-19T05:10:10;9.25;;;3.15;;
11865;SDS011;5992;52.744;6.898;2023-09-19T05:13:22;6.05;;;2.05;;
11865;SDS011;5992;52.744;6.898;2023-09-19T05:16:38;6.55;;;2.10;;
11865;SDS011;5992;52.744;6.898;2023-09-19T05:19:40;9.30;;;2.50;;
11865;SDS011;5992;52.744;6.898;2023-09-19T05:23:05;7.25;;;2.00;;
11865;SDS011;5992;52.744;6.898;2023-09-19T05:26:17;4.77;;;1.87;;
11865;SDS011;5992;52.744;6.898;2023-09-19T05:29:45;5.07;;;2.30;;
11865;SDS011;5992;52.744;6.898;2023-09-19T05:33:07;8.40;;;2.30;;
11865;SDS011;5992;52.744;6.898;2023-09-19T05:36:42;10.73;;;2.27;;
11865;SDS011;5992;52.744;6.898;2023-09-19T05:39:56;11.03;;;3.20;;
11865;SDS011;5992;52.744;6.898;2023-09-19T05:43:18;6.95;;;2.35;;
11865;SDS011;5992;52.744;6.898;2023-09-19T05:46:23;7.07;;;1.87;;
11865;SDS011;5992;52.744;6.898;2023-09-19T05:49:37;8.40;;;2.80;;
11865;SDS011;5992;52.744;6.898;2023-09-19T05:52:39;7.70;;;2.83;;
11865;SDS011;5992;52.744;6.898;2023-09-19T05:56:04;6.95;;;1.95;;
11865;SDS011;5992;52.744;6.898;2023-09-19T05:59:05;5.93;;;2.23;;
11865;SDS011;5992;52.744;6.898;2023-09-19T06:02:18;8.50;;;2.53;;
11865;SDS011;5992;52.744;6.898;2023-09-19T06:05:31;5.50;;;2.10;;
11865;SDS011;5992;52.744;6.898;2023-09-19T06:08:35;5.20;;;2.30;;
11865;SDS011;5992;52.744;6.898;2023-09-19T06:11:59;8.70;;;2.30;;
11865;SDS011;5992;52.744;6.898;2023-09-19T06:15:00;9.17;;;2.13;;
11865;SDS011;5992;52.744;6.898;2023-09-19T06:18:13;8.30;;;2.30;;
11865;SDS011;5992;52.744;6.898;2023-09-19T06:21:14;10.10;;;2.53;;
11865;SDS011;5992;52.744;6.898;2023-09-19T06:24:29;6.17;;;2.20;;
11865;SDS011;5992;52.744;6.898;2023-09-19T06:27:41;6.40;;;2.30;;
11865;SDS011;5992;52.744;6.898;2023-09-19T06:30:54;6.53;;;2.37;;
11865;SDS011;5992;52.744;6.898;2023-09-19T06:33:55;6.85;;;2.20;;
11865;SDS011;5992;52.744;6.898;2023-09-19T06:37:08;6.20;;;2.63;;
11865;SDS011;5992;52.744;6.898;2023-09-19T06:40:11;6.07;;;1.93;;
11865;SDS011;5992;52.744;6.898;2023-09-19T06:43:36;5.00;;;1.90;;
11865;SDS011;5992;52.744;6.898;2023-09-19T06:46:37;2.87;;;1.80;;
11865;SDS011;5992;52.744;6.898;2023-09-19T06:49:49;6.90;;;2.50;;
11865;SDS011;5992;52.744;6.898;2023-09-19T06:52:49;8.65;;;2.40;;
11865;SDS011;5992;52.744;6.898;2023-09-19T06:56:16;7.05;;;2.35;;
11865;SDS011;5992;52.744;6.898;2023-09-19T06:59:28;7.20;;;1.97;;
11865;SDS011;5992;52.744;6.898;2023-09-19T07:02:56;8.87;;;2.07;;
11865;SDS011;5992;52.744;6.898;2023-09-19T07:06:08;10.17;;;2.70;;
11865;SDS011;5992;52.744;6.898;2023-09-19T07:09:21;7.05;;;2.20;;
11865;SDS011;5992;52.744;6.898;2023-09-19T07:12:24;5.37;;;2.57;;
11865;SDS011;5992;52.744;6.898;2023-09-19T07:15:48;5.35;;;2.20;;
11865;SDS011;5992;52.744;6.898;2023-09-19T07:18:50;13.60;;;3.15;;
11865;SDS011;5992;52.744;6.898;2023-09-19T07:22:06;7.63;;;1.80;;
11865;SDS011;5992;52.744;6.898;2023-09-19T07:25:08;8.75;;;2.70;;
11865;SDS011;5992;52.744;6.898;2023-09-19T07:28:22;9.15;;;2.25;;
11865;SDS011;5992;52.744;6.898;2023-09-19T07:31:34;8.67;;;2.73;;
11865;SDS011;5992;52.744;6.898;2023-09-19T07:34:47;5.55;;;2.00;;
11865;SDS011;5992;52.744;6.898;2023-09-19T07:37:49;7.80;;;2.40;;
11865;SDS011;5992;52.744;6.898;2023-09-19T07:41:02;8.20;;;2.73;;
11865;SDS011;5992;52.744;6.898;2023-09-19T07:44:05;7.67;;;2.10;;
11865;SDS011;5992;52.744;6.898;2023-09-19T07:47:29;5.65;;;1.85;;
11865;SDS011;5992;52.744;6.898;2023-09-19T07:50:30;6.87;;;1.93;;
11865;SDS011;5992;52.744;6.898;2023-09-19T07:53:56;4.95;;;2.10;;
11865;SDS011;5992;52.744;6.898;2023-09-19T07:56:58;10.45;;;2.55;;
11865;SDS011;5992;52.744;6.898;2023-09-19T08:00:12;7.57;;;1.57;;
11865;SDS011;5992;52.744;6.898;2023-09-19T08:03:37;7.95;;;2.20;;
11865;SDS011;5992;52.744;6.898;2023-09-19T08:07:02;12.10;;;2.40;;
11865;SDS011;5992;52.744;6.898;2023-09-19T08:10:15;5.50;;;2.50;;
11865;SDS011;5992;52.744;6.898;2023-09-19T08:13:27;9.95;;;2.40;;
11865;SDS011;5992;52.744;6.898;2023-09-19T08:16:43;8.90;;;2.40;;
11865;SDS011;5992;52.744;6.898;2023-09-19T08:19:54;7.67;;;2.27;;
11865;SDS011;5992;52.744;6.898;2023-09-19T08:23:07;8.70;;;2.20;;
11865;SDS011;5992;52.744;6.898;2023-09-19T08:26:20;8.93;;;1.97;;
11865;SDS011;5992;52.744;6.898;2023-09-19T08:29:32;6.75;;;1.90;;
11865;SDS011;5992;52.744;6.898;2023-09-19T08:32:36;9.10;;;2.30;;
11865;SDS011;5992;52.744;6.898;2023-09-19T08:36:01;7.27;;;2.67;;
11865;SDS011;5992;52.744;6.898;2023-09-19T08:39:13;8.27;;;2.23;;
11865;SDS011;5992;52.744;6.898;2023-09-19T08:42:49;7.87;;;2.20;;
11865;SDS011;5992;52.744;6.898;2023-09-19T08:46:03;7.83;;;2.00;;
11865;SDS011;5992;52.744;6.898;2023-09-19T08:49:36;6.05;;;1.90;;
11865;SDS011;5992;52.744;6.898;2023-09-19T08:52:41;6.50;;;2.10;;
11865;SDS011;5992;52.744;6.898;2023-09-19T08:56:06;12.10;;;3.10;;
11865;SDS011;5992;52.744;6.898;2023-09-19T08:59:18;6.73;;;1.93;;
11865;SDS011;5992;52.744;6.898;2023-09-19T09:02:45;7.10;;;1.97;;
11865;SDS011;5992;52.744;6.898;2023-09-19T09:05:58;7.97;;;2.53;;
11865;SDS011;5992;52.744;6.898;2023-09-19T09:09:23;8.90;;;2.07;;
11865;SDS011;5992;52.744;6.898;2023-09-19T09:12:24;8.23;;;2.10;;
11865;SDS011;5992;52.744;6.898;2023-09-19T09:15:49;8.77;;;1.70;;
11865;SDS011;5992;52.744;6.898;2023-09-19T09:18:51;9.87;;;2.50;;
11865;SDS011;5992;52.744;6.898;2023-09-19T09:22:16;7.60;;;2.83;;
11865;SDS011;5992;52.744;6.898;2023-09-19T09:29:20;8.90;;;2.55;;
11865;SDS011;5992;52.744;6.898;2023-09-19T09:32:44;8.75;;;2.50;;
11865;SDS011;5992;52.744;6.898;2023-09-19T09:35:57;6.70;;;2.15;;
11865;SDS011;5992;52.744;6.898;2023-09-19T09:39:10;3.80;;;1.90;;
11865;SDS011;5992;52.744;6.898;2023-09-19T09:42:35;7.10;;;2.10;;
11865;SDS011;5992;52.744;6.898;2023-09-19T09:45:47;9.47;;;2.53;;
11865;SDS011;5992;52.744;6.898;2023-09-19T09:49:12;7.80;;;2.87;;
11865;SDS011;5992;52.744;6.898;2023-09-19T09:52:17;12.05;;;2.60;;
11865;SDS011;5992;52.744;6.898;2023-09-19T09:55:32;6.80;;;2.00;;
11865;SDS011;5992;52.744;6.898;2023-09-19T09:58:49;6.23;;;1.97;;
11865;SDS011;5992;52.744;6.898;2023-09-19T10:02:13;7.57;;;2.43;;
11865;SDS011;5992;52.744;6.898;2023-09-19T10:05:38;6.93;;;2.40;;
11865;SDS011;5992;52.744;6.898;2023-09-19T10:09:00;8.70;;;2.27;;
11865;SDS011;5992;52.744;6.898;2023-09-19T10:12:26;7.13;;;2.60;;
11865;SDS011;5992;52.744;6.898;2023-09-19T10:15:38;11.50;;;2.70;;
11865;SDS011;5992;52.744;6.898;2023-09-19T10:19:03;12.87;;;2.90;;
11865;SDS011;5992;52.744;6.898;2023-09-19T10:22:15;4.20;;;2.30;;
11865;SDS011;5992;52.744;6.898;2023-09-19T10:25:40;7.53;;;2.30;;
11865;SDS011;5992;52.744;6.898;2023-09-19T10:55:48;7.07;;;2.60;;
11865;SDS011;5992;52.744;6.898;2023-09-19T10:59:07;9.67;;;1.83;;
11865;SDS011;5992;52.744;6.898;2023-09-19T11:02:31;9.50;;;2.23;;
11865;SDS011;5992;52.744;6.898;2023-09-19T11:05:43;14.30;;;3.20;;
11865;SDS011;5992;52.744;6.898;2023-09-19T11:09:08;3.57;;;1.73;;
11865;SDS011;5992;52.744;6.898;2023-09-19T11:16:18;9.80;;;2.60;;
11865;SDS011;5992;52.744;6.898;2023-09-19T11:23:24;8.27;;;2.23;;
11865;SDS011;5992;52.744;6.898;2023-09-19T11:26:39;8.90;;;2.10;;
11865;SDS011;5992;52.744;6.898;2023-09-19T11:33:39;5.90;;;2.03;;
11865;SDS011;5992;52.744;6.898;2023-09-19T11:36:53;7.73;;;1.90;;
11865;SDS011;5992;52.744;6.898;2023-09-19T11:40:05;8.67;;;2.43;;
11865;SDS011;5992;52.744;6.898;2023-09-19T11:43:31;9.03;;;2.20;;
11865;SDS011;5992;52.744;6.898;2023-09-19T11:46:52;5.23;;;1.73;;
11865;SDS011;5992;52.744;6.898;2023-09-19T11:50:18;7.13;;;2.20;;
11865;SDS011;5992;52.744;6.898;2023-09-19T11:53:31;5.97;;;2.40;;
11865;SDS011;5992;52.744;6.898;2023-09-19T11:56:54;3.90;;;1.67;;
11865;SDS011;5992;52.744;6.898;2023-09-19T12:00:10;5.63;;;2.20;;
11865;SDS011;5992;52.744;6.898;2023-09-19T12:03:33;4.67;;;2.17;;
11865;SDS011;5992;52.744;6.898;2023-09-19T12:06:45;7.17;;;2.27;;
11865;SDS011;5992;52.744;6.898;2023-09-19T12:10:09;6.50;;;2.83;;
11865;SDS011;5992;52.744;6.898;2023-09-19T12:13:10;4.23;;;2.03;;
11865;SDS011;5992;52.744;6.898;2023-09-19T12:16:36;5.77;;;2.23;;
11865;SDS011;5992;52.744;6.898;2023-09-19T12:19:49;8.03;;;2.10;;
11865;SDS011;5992;52.744;6.898;2023-09-19T12:23:14;7.63;;;2.23;;
11865;SDS011;5992;52.744;6.898;2023-09-19T12:26:15;6.63;;;2.10;;
11865;SDS011;5992;52.744;6.898;2023-09-19T12:29:29;4.50;;;1.80;;
11865;SDS011;5992;52.744;6.898;2023-09-19T12:32:44;5.60;;;2.10;;
11865;SDS011;5992;52.744;6.898;2023-09-19T12:36:19;3.17;;;1.83;;
11865;SDS011;5992;52.744;6.898;2023-09-19T12:39:31;8.03;;;1.97;;
11865;SDS011;5992;52.744;6.898;2023-09-19T12:42:44;4.17;;;1.73;;
11865;SDS011;5992;52.744;6.898;2023-09-19T12:45:56;7.10;;;1.87;;
11865;SDS011;5992;52.744;6.898;2023-09-19T12:49:17;8.57;;;2.20;;
11865;SDS011;5992;52.744;6.898;2023-09-19T12:52:33;5.13;;;2.00;;
11865;SDS011;5992;52.744;6.898;2023-09-19T12:55:58;5.67;;;2.10;;
11865;SDS011;5992;52.744;6.898;2023-09-19T12:59:10;8.03;;;1.57;;
11865;SDS011;5992;52.744;6.898;2023-09-19T13:02:33;4.77;;;1.77;;
11865;SDS011;5992;52.744;6.898;2023-09-19T13:05:48;9.23;;;2.47;;
11865;SDS011;5992;52.744;6.898;2023-09-19T13:09:12;3.77;;;2.10;;
11865;SDS011;5992;52.744;6.898;2023-09-19T13:15:58;7.03;;;2.33;;
11865;SDS011;5992;52.744;6.898;2023-09-19T13:19:10;7.33;;;2.07;;
11865;SDS011;5992;52.744;6.898;2023-09-19T13:22:37;5.93;;;1.70;;
11865;SDS011;5992;52.744;6.898;2023-09-19T13:25:48;5.37;;;1.80;;
11865;SDS011;5992;52.744;6.898;2023-09-19T13:29:02;4.07;;;1.50;;
11865;SDS011;5992;52.744;6.898;2023-09-19T13:32:04;3.10;;;1.70;;
11865;SDS011;5992;52.744;6.898;2023-09-19T13:35:16;4.07;;;1.60;;
11865;SDS011;5992;52.744;6.898;2023-09-19T13:38:19;3.23;;;1.33;;
11865;SDS011;5992;52.744;6.898;2023-09-19T13:41:44;4.60;;;1.73;;
11865;SDS011;5992;52.744;6.898;2023-09-19T13:44:56;3.10;;;1.57;;
11865;SDS011;5992;52.744;6.898;2023-09-19T13:48:09;3.30;;;1.40;;
11865;SDS011;5992;52.744;6.898;2023-09-19T13:51:11;6.43;;;2.10;;
11865;SDS011;5992;52.744;6.898;2023-09-19T13:54:25;7.27;;;1.80;;
11865;SDS011;5992;52.744;6.898;2023-09-19T13:57:37;3.77;;;1.67;;
11865;SDS011;5992;52.744;6.898;2023-09-19T14:00:50;5.83;;;1.77;;
11865;SDS011;5992;52.744;6.898;2023-09-19T14:04:14;4.93;;;1.53;;
11865;SDS011;5992;52.744;6.898;2023-09-19T14:07:15;6.87;;;1.50;;
11865;SDS011;5992;52.744;6.898;2023-09-19T14:10:29;4.27;;;2.13;;
11865;SDS011;5992;52.744;6.898;2023-09-19T14:13:42;4.53;;;1.43;;
11865;SDS011;5992;52.744;6.898;2023-09-19T14:17:06;3.93;;;1.53;;
11865;SDS011;5992;52.744;6.898;2023-09-19T14:20:18;7.40;;;1.50;;
11865;SDS011;5992;52.744;6.898;2023-09-19T14:23:34;3.60;;;1.27;;
11865;SDS011;5992;52.744;6.898;2023-09-19T14:26:48;5.10;;;2.17;;
11865;SDS011;5992;52.744;6.898;2023-09-19T14:30:13;5.80;;;1.50;;
11865;SDS011;5992;52.744;6.898;2023-09-19T14:33:25;4.10;;;1.23;;
11865;SDS011;5992;52.744;6.898;2023-09-19T14:36:38;3.30;;;1.50;;
11865;SDS011;5992;52.744;6.898;2023-09-19T14:39:50;3.43;;;1.60;;
11865;SDS011;5992;52.744;6.898;2023-09-19T14:43:04;6.83;;;1.60;;
11865;SDS011;5992;52.744;6.898;2023-09-19T14:46:17;5.67;;;1.53;;
11865;SDS011;5992;52.744;6.898;2023-09-19T14:49:30;2.90;;;1.47;;
11865;SDS011;5992;52.744;6.898;2023-09-19T14:52:42;3.53;;;1.23;;
11865;SDS011;5992;52.744;6.898;2023-09-19T14:55:55;3.10;;;1.50;;
11865;SDS011;5992;52.744;6.898;2023-09-19T14:58:57;4.80;;;1.67;;
11865;SDS011;5992;52.744;6.898;2023-09-19T15:02:23;2.50;;;1.00;;
11865;SDS011;5992;52.744;6.898;2023-09-19T15:05:24;4.33;;;1.07;;
11865;SDS011;5992;52.744;6.898;2023-09-19T15:08:36;11.43;;;1.80;;
11865;SDS011;5992;52.744;6.898;2023-09-19T15:11:48;3.40;;;1.20;;
11865;SDS011;5992;52.744;6.898;2023-09-19T15:15:03;4.70;;;0.97;;
11865;SDS011;5992;52.744;6.898;2023-09-19T15:18:16;3.67;;;1.40;;
11865;SDS011;5992;52.744;6.898;2023-09-19T15:21:30;13.27;;;1.60;;
11865;SDS011;5992;52.744;6.898;2023-09-19T15:24:31;2.10;;;1.13;;
11865;SDS011;5992;52.744;6.898;2023-09-19T15:27:55;4.90;;;1.20;;
11865;SDS011;5992;52.744;6.898;2023-09-19T15:31:01;1.63;;;0.90;;
11865;SDS011;5992;52.744;6.898;2023-09-19T15:34:25;2.10;;;1.00;;
11865;SDS011;5992;52.744;6.898;2023-09-19T15:37:26;4.80;;;1.30;;
11865;SDS011;5992;52.744;6.898;2023-09-19T15:40:45;2.77;;;1.33;;
11865;SDS011;5992;52.744;6.898;2023-09-19T15:43:57;1.63;;;0.90;;
11865;SDS011;5992;52.744;6.898;2023-09-19T15:47:22;2.70;;;1.30;;
11865;SDS011;5992;52.744;6.898;2023-09-19T15:50:36;2.93;;;1.10;;
11865;SDS011;5992;52.744;6.898;2023-09-19T15:53:50;5.07;;;1.20;;
11865;SDS011;5992;52.744;6.898;2023-09-19T15:57:01;4.73;;;1.40;;
11865;SDS011;5992;52.744;6.898;2023-09-19T16:00:15;2.37;;;1.57;;
11865;SDS011;5992;52.744;6.898;2023-09-19T16:03:29;2.83;;;1.27;;
11865;SDS011;5992;52.744;6.898;2023-09-19T16:06:42;1.87;;;1.00;;
11865;SDS011;5992;52.744;6.898;2023-09-19T16:09:56;3.90;;;1.40;;
11865;SDS011;5992;52.744;6.898;2023-09-19T16:12:57;4.03;;;1.40;;
11865;SDS011;5992;52.744;6.898;2023-09-19T16:16:10;4.77;;;1.30;;
11865;SDS011;5992;52.744;6.898;2023-09-19T16:19:23;3.53;;;1.57;;
11865;SDS011;5992;52.744;6.898;2023-09-19T16:22:50;4.80;;;1.57;;
11865;SDS011;5992;52.744;6.898;2023-09-19T16:25:59;3.60;;;0.90;;
11865;SDS011;5992;52.744;6.898;2023-09-19T16:29:24;2.40;;;1.20;;
11865;SDS011;5992;52.744;6.898;2023-09-19T16:32:25;4.13;;;1.20;;
11865;SDS011;5992;52.744;6.898;2023-09-19T16:35:38;3.30;;;1.75;;
11865;SDS011;5992;52.744;6.898;2023-09-19T16:39:28;1.80;;;1.27;;
11865;SDS011;5992;52.744;6.898;2023-09-19T16:42:42;4.10;;;1.23;;
11865;SDS011;5992;52.744;6.898;2023-09-19T16:45:54;1.30;;;0.90;;
11865;SDS011;5992;52.744;6.898;2023-09-19T16:49:21;4.80;;;2.20;;
11865;SDS011;5992;52.744;6.898;2023-09-19T16:52:23;3.70;;;1.60;;
11865;SDS011;5992;52.744;6.898;2023-09-19T16:55:47;2.75;;;1.60;;
11865;SDS011;5992;52.744;6.898;2023-09-19T16:58:59;2.47;;;1.23;;
11865;SDS011;5992;52.744;6.898;2023-09-19T17:02:23;3.17;;;1.40;;
11865;SDS011;5992;52.744;6.898;2023-09-19T17:05:24;3.53;;;1.40;;
11865;SDS011;5992;52.744;6.898;2023-09-19T17:08:40;2.97;;;1.00;;
11865;SDS011;5992;52.744;6.898;2023-09-19T17:11:51;5.67;;;1.47;;
11865;SDS011;5992;52.744;6.898;2023-09-19T17:15:03;2.23;;;1.30;;
11865;SDS011;5992;52.744;6.898;2023-09-19T17:18:05;4.87;;;1.20;;
11865;SDS011;5992;52.744;6.898;2023-09-19T17:21:30;2.90;;;1.27;;
11865;SDS011;5992;52.744;6.898;2023-09-19T17:24:33;3.00;;;1.20;;
11865;SDS011;5992;52.744;6.898;2023-09-19T17:27:57;5.27;;;1.13;;
11865;SDS011;5992;52.744;6.898;2023-09-19T17:30:58;1.40;;;1.27;;
11865;SDS011;5992;52.744;6.898;2023-09-19T17:34:23;3.20;;;1.47;;
11865;SDS011;5992;52.744;6.898;2023-09-19T17:37:24;2.90;;;1.13;;
11865;SDS011;5992;52.744;6.898;2023-09-19T17:40:40;2.37;;;1.30;;
11865;SDS011;5992;52.744;6.898;2023-09-19T17:43:52;2.03;;;1.37;;
11865;SDS011;5992;52.744;6.898;2023-09-19T17:47:15;3.10;;;1.23;;
11865;SDS011;5992;52.744;6.898;2023-09-19T17:50:15;5.77;;;1.27;;
11865;SDS011;5992;52.744;6.898;2023-09-19T17:53:28;4.37;;;1.60;;
11865;SDS011;5992;52.744;6.898;2023-09-19T17:56:42;3.60;;;1.37;;
11865;SDS011;5992;52.744;6.898;2023-09-19T18:00:08;3.60;;;1.50;;
11865;SDS011;5992;52.744;6.898;2023-09-19T18:03:33;3.77;;;1.30;;
11865;SDS011;5992;52.744;6.898;2023-09-19T18:06:45;2.73;;;1.27;;
11865;SDS011;5992;52.744;6.898;2023-09-19T18:09:58;2.50;;;1.47;;
11865;SDS011;5992;52.744;6.898;2023-09-19T18:13:01;3.00;;;1.53;;
11865;SDS011;5992;52.744;6.898;2023-09-19T18:16:24;1.20;;;1.10;;
11865;SDS011;5992;52.744;6.898;2023-09-19T18:19:37;7.07;;;2.37;;
11865;SDS011;5992;52.744;6.898;2023-09-19T18:22:50;2.77;;;1.37;;
11865;SDS011;5992;52.744;6.898;2023-09-19T18:26:02;3.57;;;1.40;;
11865;SDS011;5992;52.744;6.898;2023-09-19T18:29:17;2.57;;;1.50;;
11865;SDS011;5992;52.744;6.898;2023-09-19T18:32:29;5.37;;;1.43;;
11865;SDS011;5992;52.744;6.898;2023-09-19T18:35:42;3.13;;;1.30;;
11865;SDS011;5992;52.744;6.898;2023-09-19T18:38:43;4.53;;;1.27;;
11865;SDS011;5992;52.744;6.898;2023-09-19T18:42:08;4.40;;;1.73;;
11865;SDS011;5992;52.744;6.898;2023-09-19T18:45:11;3.40;;;1.60;;
11865;SDS011;5992;52.744;6.898;2023-09-19T18:48:36;2.50;;;1.30;;
11865;SDS011;5992;52.744;6.898;2023-09-19T18:51:48;3.40;;;1.87;;
11865;SDS011;5992;52.744;6.898;2023-09-19T18:55:03;5.10;;;1.50;;
11865;SDS011;5992;52.744;6.898;2023-09-19T18:58:03;4.07;;;1.60;;
11865;SDS011;5992;52.744;6.898;2023-09-19T19:01:18;3.87;;;1.40;;
11865;SDS011;5992;52.744;6.898;2023-09-19T19:04:30;3.60;;;1.50;;
11865;SDS011;5992;52.744;6.898;2023-09-19T19:07:54;5.77;;;1.70;;
11865;SDS011;5992;52.744;6.898;2023-09-19T19:10:55;4.30;;;2.03;;
11865;SDS011;5992;52.744;6.898;2023-09-19T19:14:09;3.57;;;1.07;;
11865;SDS011;5992;52.744;6.898;2023-09-19T19:17:12;2.33;;;1.67;;
11865;SDS011;5992;52.744;6.898;2023-09-19T19:20:37;4.13;;;1.53;;
11865;SDS011;5992;52.744;6.898;2023-09-19T19:23:38;3.03;;;1.70;;
11865;SDS011;5992;52.744;6.898;2023-09-19T19:27:02;3.73;;;1.40;;
11865;SDS011;5992;52.744;6.898;2023-09-19T19:30:03;3.53;;;1.73;;
11865;SDS011;5992;52.744;6.898;2023-09-19T19:33:19;4.05;;;1.30;;
11865;SDS011;5992;52.744;6.898;2023-09-19T19:36:32;6.07;;;1.93;;
11865;SDS011;5992;52.744;6.898;2023-09-19T19:39:58;1.65;;;1.40;;
11865;SDS011;5992;52.744;6.898;2023-09-19T19:42:59;4.57;;;1.80;;
11865;SDS011;5992;52.744;6.898;2023-09-19T19:46:12;4.60;;;1.70;;
11865;SDS011;5992;52.744;6.898;2023-09-19T19:49:14;2.93;;;1.50;;
11865;SDS011;5992;52.744;6.898;2023-09-19T19:52:38;3.83;;;1.60;;
11865;SDS011;5992;52.744;6.898;2023-09-19T19:55:39;2.55;;;1.40;;
11865;SDS011;5992;52.744;6.898;2023-09-19T19:59:03;2.95;;;1.45;;
11865;SDS011;5992;52.744;6.898;2023-09-19T20:02:04;5.90;;;1.77;;
11865;SDS011;5992;52.744;6.898;2023-09-19T20:05:30;3.13;;;1.30;;
11865;SDS011;5992;52.744;6.898;2023-09-19T20:08:43;5.70;;;1.53;;
11865;SDS011;5992;52.744;6.898;2023-09-19T20:11:56;3.77;;;1.70;;
11865;SDS011;5992;52.744;6.898;2023-09-19T20:14:57;2.75;;;1.40;;
11865;SDS011;5992;52.744;6.898;2023-09-19T20:18:10;6.37;;;1.87;;
11865;SDS011;5992;52.744;6.898;2023-09-19T20:21:23;4.73;;;1.53;;
11865;SDS011;5992;52.744;6.898;2023-09-19T20:24:47;5.07;;;2.03;;
11865;SDS011;5992;52.744;6.898;2023-09-19T20:27:48;4.77;;;1.97;;
11865;SDS011;5992;52.744;6.898;2023-09-19T20:31:12;4.33;;;1.37;;
11865;SDS011;5992;52.744;6.898;2023-09-19T20:34:24;3.40;;;1.63;;
11865;SDS011;5992;52.744;6.898;2023-09-19T20:37:39;3.95;;;1.70;;